»·PEaware :: DAL717 KSLC-KDEN

DAL717 :: KSLC-KDEN

FLIGHT INFORMATION

Flight Status: Arrived
Operator:
Delta Air Lines
More flights by this operator :: More flights under this callsign
Pilot: Dean L. (8400)
Aircraft: BOEING 717-200
(B712)
More flights by this aircraft type
Origin: KSLC Salt Lake City Intl
United States
Destination: KDEN Denver Intl
United States
More flights between these airports :: More routes between these airports
Route: +SCARF FRNCH3
File this flight plan on PilotEdge
Remarks:
Altitude:
(Current/Filed)
33,000ft
Speed:
(Current/Filed)
440kts
Departed: 12-Jan-18 04:36 PM
Arrived: 12-Jan-18 06:08 PM
Distance/Time
Traveled:
338nm/1:32
Distance/Time
To Go:
Arrived

Flight Plot

Page will automatically refresh every two minutes.

Flight plan parsing failed; only flown route is shown


Map Options




Map Legend


Flown Route
Filed Route
Departure Airport
Arrival Airport
Navaid (VOR, NDB)
Fix

Horizontal Profiles

Position Reports

Time Latitude Longitude Heading Altitude Ground
Speed
12-Jan-18 16:23 40.788066 -111.980794 282 4235ft 0kts
12-Jan-18 16:24 40.788066 -111.980795 282 4235ft 0kts
12-Jan-18 16:25 40.788067 -111.980796 282 4235ft 0kts
12-Jan-18 16:26 40.788067 -111.980798 282 4235ft 0kts
12-Jan-18 16:27 40.788067 -111.980799 282 4235ft 0kts
12-Jan-18 16:28 40.788067 -111.980800 282 4235ft 0kts
12-Jan-18 16:29 40.788067 -111.980801 282 4235ft 0kts
12-Jan-18 16:30 40.788068 -111.980802 282 4235ft 0kts
12-Jan-18 16:31 40.788068 -111.980803 282 4235ft 0kts
12-Jan-18 16:32 40.788068 -111.980804 282 4235ft 0kts
12-Jan-18 16:33 40.788068 -111.980805 281 4235ft 0kts
12-Jan-18 16:34 40.788491 -111.981958 314 4235ft 12kts
12-Jan-18 16:35 40.790185 -111.982770 11 4235ft 1kts
12-Jan-18 16:36 40.793504 -111.977340 356 4235ft 31kts
12-Jan-18 16:37 40.800539 -111.978160 354 4235ft 19kts
12-Jan-18 16:38 40.804415 -111.978608 354 4235ft 8kts
12-Jan-18 16:39 40.805436 -111.978727 354 4235ft 0kts
12-Jan-18 16:40 40.807349 -111.978343 84 4235ft 0kts
12-Jan-18 16:41 40.807213 -111.977272 114 4235ft 5kts
12-Jan-18 16:42 40.788034 -111.976212 202 4237ft 163kts
12-Jan-18 16:59 40.787515 -111.982172 112 4235ft 0kts
12-Jan-18 17:00 40.787515 -111.982171 112 4235ft 0kts
12-Jan-18 17:01 40.787514 -111.982170 112 4235ft 0kts
12-Jan-18 17:02 40.787514 -111.982169 112 4235ft 0kts
12-Jan-18 17:03 40.787513 -111.982168 112 4235ft 0kts
12-Jan-18 17:04 40.787513 -111.982166 112 4235ft 0kts
12-Jan-18 17:05 40.787513 -111.982165 112 4235ft 0kts
12-Jan-18 17:06 40.787512 -111.982164 112 4235ft 0kts
12-Jan-18 17:07 40.787512 -111.982163 112 4235ft 0kts
12-Jan-18 17:08 40.787513 -111.982165 112 4235ft 0kts
12-Jan-18 17:09 40.788339 -111.979069 3 4235ft 14kts
12-Jan-18 17:10 40.790248 -111.979156 78 4235ft 0kts
12-Jan-18 17:11 40.783589 -111.976229 175 4235ft 44kts
12-Jan-18 17:12 40.774005 -111.973597 96 4235ft 14kts
12-Jan-18 17:13 40.773991 -111.973441 96 4235ft 0kts
12-Jan-18 17:14 40.774441 -111.973133 8 4235ft 18kts
12-Jan-18 17:15 40.776394 -111.973133 356 4235ft 42kts
12-Jan-18 17:16 40.815542 -111.978301 352 6021ft 166kts
12-Jan-18 17:17 40.863213 -111.984714 352 8070ft 193kts
12-Jan-18 17:18 40.929086 -111.993552 351 10044ft 253kts
12-Jan-18 17:19 40.999478 -112.003412 350 10454ft 269kts
12-Jan-18 17:20 41.075317 -112.006555 13 10433ft 280kts
12-Jan-18 17:21 41.135096 -111.936896 53 12213ft 305kts
12-Jan-18 17:22 41.136166 -111.816913 100 14968ft 355kts
12-Jan-18 17:23 41.064677 -111.724880 156 17467ft 383kts
12-Jan-18 17:24 40.969298 -111.651300 153 19808ft 409kts
12-Jan-18 17:25 40.908361 -111.524835 81 21132ft 438kts
12-Jan-18 17:26 40.905030 -111.354872 93 21576ft 497kts
12-Jan-18 17:27 40.882628 -111.172481 91 22759ft 510kts
12-Jan-18 17:28 40.860178 -110.985196 91 23889ft 521kts
12-Jan-18 17:29 40.836970 -110.794335 91 24848ft 532kts
12-Jan-18 17:30 40.812981 -110.599901 91 25717ft 543kts
12-Jan-18 17:31 40.788138 -110.401476 91 26517ft 551kts
12-Jan-18 17:32 40.762639 -110.200671 92 27189ft 559kts
12-Jan-18 17:33 40.738911 -109.997072 86 27927ft 557kts
12-Jan-18 17:34 40.725137 -109.793949 86 28777ft 558kts
12-Jan-18 17:35 40.710360 -109.590053 86 29614ft 560kts
12-Jan-18 17:36 40.695180 -109.385358 86 30543ft 560kts
12-Jan-18 17:37 40.679718 -109.181774 86 31551ft 558kts
12-Jan-18 17:38 40.664481 -108.984962 86 33295ft 541kts
12-Jan-18 17:39 40.648459 -108.783647 87 33318ft 562kts
12-Jan-18 17:40 40.631822 -108.579195 87 33308ft 563kts
12-Jan-18 17:41 40.614775 -108.373959 87 33305ft 563kts
12-Jan-18 17:42 40.597402 -108.169270 87 33301ft 564kts
12-Jan-18 17:43 40.579591 -107.963719 87 33315ft 564kts
12-Jan-18 17:44 40.561488 -107.759200 87 33316ft 564kts
12-Jan-18 17:45 40.543015 -107.554566 88 33324ft 565kts
12-Jan-18 17:46 40.524119 -107.349491 88 33322ft 563kts
12-Jan-18 17:47 40.511649 -107.147235 84 32577ft 545kts
12-Jan-18 17:48 40.500965 -106.948070 85 29378ft 547kts
12-Jan-18 17:49 40.490067 -106.753845 85 27438ft 512kts
12-Jan-18 17:50 40.479461 -106.566789 85 27255ft 519kts
12-Jan-18 17:51 40.467782 -106.368110 86 27222ft 561kts
12-Jan-18 17:52 40.455616 -106.168966 86 27168ft 542kts
12-Jan-18 17:53 40.441632 -105.970659 93 27164ft 549kts
12-Jan-18 17:54 40.410284 -105.774328 95 27135ft 550kts
12-Jan-18 17:55 40.380211 -105.586648 95 27096ft 496kts
12-Jan-18 17:56 40.351860 -105.415681 95 25632ft 476kts
12-Jan-18 17:57 40.319777 -105.247450 115 23517ft 480kts
12-Jan-18 17:58 40.221620 -105.151288 184 21823ft 419kts
12-Jan-18 17:59 40.109575 -105.108222 138 18509ft 476kts
12-Jan-18 18:00 40.057704 -104.961859 127 17577ft 421kts
12-Jan-18 18:01 39.981404 -104.851605 132 15761ft 407kts
12-Jan-18 18:02 39.888941 -104.799851 200 13558ft 349kts
12-Jan-18 18:03 39.791712 -104.809180 187 11497ft 347kts
12-Jan-18 18:04 39.699569 -104.811465 187 11265ft 328kts
12-Jan-18 18:05 39.618199 -104.813591 186 10225ft 274kts
12-Jan-18 18:06 39.560072 -104.771317 98 8124ft 255kts
12-Jan-18 18:07 39.565613 -104.682174 71 8004ft 251kts
12-Jan-18 18:08 39.602054 -104.608195 19 7782ft 255kts
12-Jan-18 18:09 39.652471 -104.660689 296 7279ft 241kts
12-Jan-18 18:10 39.700382 -104.714753 337 6632ft 225kts
12-Jan-18 18:11 39.753902 -104.715238 10 6852ft 202kts
12-Jan-18 18:12 39.813265 -104.700156 7 7347ft 198kts
12-Jan-18 18:13 39.859745 -104.696437 359 5440ft 116kts
12-Jan-18 18:14 39.874100 -104.694994 27 5439ft 0kts
12-Jan-18 18:15 39.874101 -104.694994 27 5439ft 0kts
12-Jan-18 18:16 39.874847 -104.680369 95 5439ft 65kts

Navigation Log

Ident Type
Flight plan parsing failed, navigation log unavailable